createdAt,value
2019-05-02T00:01:17.182Z,13.32
2019-05-02T00:03:45.866Z,13.22
2019-05-02T00:06:14.555Z,13.01
2019-05-02T00:08:43.213Z,13.08
2019-05-02T00:11:12.601Z,12.54
2019-05-02T00:13:41.492Z,12.54
2019-05-02T00:16:14.058Z,13.11
2019-05-02T00:18:41.310Z,13.14
2019-05-02T00:21:10.393Z,12.60
2019-05-02T00:23:39.134Z,12.45
2019-05-02T00:26:07.914Z,13.23
2019-05-02T00:28:36.606Z,12.82
2019-05-02T00:31:07.370Z,12.93
2019-05-02T00:33:36.168Z,12.83
2019-05-02T00:36:04.971Z,12.97
2019-05-02T00:38:38.611Z,13.52
2019-05-02T00:41:04.122Z,13.24
2019-05-02T00:43:34.586Z,13.04
2019-05-02T00:46:03.262Z,13.06
2019-05-02T00:48:33.520Z,13.15
2019-05-02T00:51:02.200Z,12.57
2019-05-02T00:53:31.219Z,13.17
2019-05-02T00:55:59.904Z,12.50
2019-05-02T00:58:31.971Z,12.46
2019-05-02T01:01:12.480Z,12.40
2019-05-02T01:03:47.158Z,12.75
2019-05-02T01:06:14.367Z,12.53
2019-05-02T01:08:44.074Z,12.75
2019-05-02T01:11:12.760Z,12.16
2019-05-02T01:13:41.377Z,12.82
2019-05-02T01:16:10.029Z,12.07
2019-05-02T01:18:41.350Z,13.10
2019-05-02T01:21:09.698Z,12.98
2019-05-02T01:23:38.347Z,13.41
2019-05-02T01:26:08.601Z,13.21
2019-05-02T01:28:49.151Z,12.78
2019-05-02T01:31:22.550Z,12.61
2019-05-02T01:33:52.864Z,12.50
2019-05-02T01:36:25.859Z,12.56
2019-05-02T01:38:54.569Z,13.16
2019-05-02T01:41:23.926Z,12.66
2019-05-02T01:43:55.014Z,13.00
2019-05-02T01:46:24.253Z,13.27
2019-05-02T01:48:52.893Z,13.53
2019-05-02T01:51:21.500Z,12.17
2019-05-02T01:53:50.192Z,11.99
2019-05-02T01:56:18.928Z,11.68
2019-05-02T01:58:47.625Z,11.98
2019-05-02T02:01:21.318Z,12.44
2019-05-02T02:03:47.040Z,12.24
2019-05-02T02:06:15.691Z,12.13
2019-05-02T02:08:44.312Z,12.26
2019-05-02T02:11:12.959Z,12.27
2019-05-02T02:13:41.661Z,12.67
2019-05-02T02:16:10.352Z,12.24
2019-05-02T02:18:43.387Z,12.41
2019-05-02T02:21:13.653Z,12.34
2019-05-02T02:23:49.652Z,12.50
2019-05-02T02:26:18.636Z,12.60
2019-05-02T02:28:47.338Z,12.84
2019-05-02T02:31:17.480Z,12.88
2019-05-02T02:33:48.133Z,12.65
2019-05-02T02:36:29.838Z,12.45
2019-05-02T02:38:47.242Z,13.07
2019-05-02T02:41:15.972Z,13.18
2019-05-02T02:43:46.637Z,12.66
2019-05-02T02:46:22.855Z,13.18
2019-05-02T02:48:51.560Z,13.37
2019-05-02T02:51:23.647Z,12.44
2019-05-02T02:54:02.871Z,13.16
2019-05-02T02:56:21.056Z,13.09
2019-05-02T02:58:49.662Z,13.34
2019-05-02T03:01:27.759Z,13.33
2019-05-02T03:03:48.667Z,13.58
2019-05-02T03:06:17.268Z,12.77
2019-05-02T03:08:49.176Z,12.65
2019-05-02T03:11:23.352Z,12.86
2019-05-02T03:14:06.148Z,12.52
2019-05-02T03:16:30.758Z,12.58
2019-05-02T03:18:59.440Z,13.03
2019-05-02T03:21:28.095Z,12.54
2019-05-02T03:24:03.410Z,13.14
2019-05-02T03:26:27.132Z,12.64
2019-05-02T03:28:58.675Z,13.47
2019-05-02T03:31:30.357Z,13.10
2019-05-02T03:34:00.722Z,13.72
2019-05-02T03:36:34.920Z,12.99
2019-05-02T03:38:58.854Z,12.42
2019-05-02T03:41:27.551Z,12.61
2019-05-02T03:44:10.491Z,13.13
2019-05-02T03:46:26.817Z,12.71
2019-05-02T03:49:06.236Z,12.27
2019-05-02T03:51:26.371Z,12.88
2019-05-02T03:54:05.729Z,12.67
2019-05-02T03:56:25.598Z,12.17
2019-05-02T03:58:56.374Z,12.64
2019-05-02T04:01:24.965Z,12.48
2019-05-02T04:03:54.163Z,13.18
2019-05-02T04:06:23.771Z,12.72
2019-05-02T04:08:58.706Z,12.88
2019-05-02T04:11:24.734Z,12.91
2019-05-02T04:13:54.277Z,12.62
2019-05-02T04:16:23.702Z,12.49
2019-05-02T04:18:55.624Z,12.82
2019-05-02T04:21:25.949Z,12.37
2019-05-02T04:23:53.917Z,12.85
2019-05-02T04:26:22.547Z,12.91
2019-05-02T04:28:52.127Z,13.12
2019-05-02T04:31:24.783Z,13.09
2019-05-02T04:33:54.385Z,13.33
2019-05-02T04:36:23.107Z,13.39
2019-05-02T04:38:52.564Z,12.78
2019-05-02T04:41:28.852Z,13.32
2019-05-02T04:43:57.536Z,13.28
2019-05-02T04:46:27.234Z,13.77
2019-05-02T04:48:53.286Z,12.91
2019-05-02T04:51:22.050Z,13.61
2019-05-02T04:53:50.741Z,12.90
2019-05-02T04:56:19.434Z,12.75
2019-05-02T04:58:49.560Z,13.59
2019-05-02T05:01:21.333Z,13.26
2019-05-02T05:03:57.400Z,13.11
2019-05-02T05:06:19.445Z,13.09
2019-05-02T05:08:48.508Z,13.63
2019-05-02T05:11:20.851Z,13.40
2019-05-02T05:13:48.041Z,12.88
2019-05-02T05:16:18.624Z,13.27
2019-05-02T05:18:49.477Z,13.43
2019-05-02T05:21:17.987Z,13.53
2019-05-02T05:23:51.846Z,13.48
2019-05-02T05:26:21.413Z,13.22
2019-05-02T05:28:50.103Z,12.99
2019-05-02T05:31:24.047Z,13.54
2019-05-02T05:33:49.176Z,13.25
2019-05-02T05:36:19.962Z,13.69
2019-05-02T05:38:48.207Z,13.79
2019-05-02T05:41:22.748Z,13.89
2019-05-02T05:43:50.032Z,13.70
2019-05-02T05:46:17.969Z,14.05
2019-05-02T05:48:47.650Z,13.86
2019-05-02T05:51:20.551Z,13.49
2019-05-02T05:53:47.901Z,13.86
2019-05-02T05:56:17.993Z,14.12
2019-05-02T05:58:50.835Z,13.10
2019-05-02T06:01:20.488Z,13.23
2019-05-02T06:03:47.698Z,13.08
2019-05-02T06:06:22.785Z,13.63
2019-05-02T06:08:49.253Z,14.14
2019-05-02T06:11:20.084Z,13.67
2019-05-02T06:13:48.917Z,13.54
2019-05-02T06:16:18.056Z,14.17
2019-05-02T06:18:46.809Z,13.97
2019-05-02T06:21:17.068Z,13.63
2019-05-02T06:23:46.210Z,13.92
2019-05-02T06:26:15.570Z,13.74
2019-05-02T06:28:44.549Z,14.40
2019-05-02T06:31:13.238Z,14.34
2019-05-02T06:33:41.955Z,14.64
2019-05-02T06:36:10.638Z,14.57
2019-05-02T06:38:39.330Z,14.38
2019-05-02T06:41:08.079Z,14.21
2019-05-02T06:43:41.281Z,14.23
2019-05-02T06:46:16.091Z,14.19
2019-05-02T06:48:37.638Z,14.08
2019-05-02T06:51:10.985Z,15.03
2019-05-02T06:53:41.463Z,14.58
2019-05-02T06:56:08.028Z,15.03
2019-05-02T06:58:42.092Z,14.28
2019-05-02T07:01:08.126Z,14.36
2019-05-02T07:03:41.436Z,15.06
2019-05-02T07:06:07.831Z,15.24
2019-05-02T07:08:37.575Z,14.23
2019-05-02T07:11:06.254Z,14.55
2019-05-02T07:13:36.150Z,14.50
2019-05-02T07:16:10.619Z,14.54
2019-05-02T07:18:47.541Z,14.77
2019-05-02T07:21:17.303Z,15.25
2019-05-02T07:23:48.721Z,15.16
2019-05-02T07:26:21.096Z,15.20
2019-05-02T07:28:47.532Z,15.16
2019-05-02T07:31:16.214Z,15.03
2019-05-02T07:33:44.837Z,14.83
2019-05-02T07:36:13.575Z,14.96
2019-05-02T07:38:42.261Z,15.20
2019-05-02T07:41:10.962Z,15.31
2019-05-02T07:43:39.685Z,15.45
2019-05-02T07:46:08.306Z,14.81
2019-05-02T07:48:37.001Z,13.93
2019-05-02T07:51:05.744Z,14.54
2019-05-02T07:53:34.543Z,14.32
2019-05-02T07:56:03.268Z,14.49
2019-05-02T07:58:31.994Z,14.90
2019-05-02T08:01:00.676Z,15.06
2019-05-02T08:03:33.422Z,15.37
2019-05-02T08:06:00.047Z,15.61
2019-05-02T08:08:29.930Z,15.72
2019-05-02T08:11:01.818Z,15.45
2019-05-02T08:13:31.408Z,15.06
2019-05-02T08:15:59.938Z,15.16
2019-05-02T08:18:30.361Z,15.45
2019-05-02T08:20:59.084Z,15.34
2019-05-02T08:23:27.954Z,15.22
2019-05-02T08:25:56.583Z,15.61
2019-05-02T08:28:26.874Z,15.62
2019-05-02T08:30:57.055Z,15.28
2019-05-02T08:33:29.280Z,14.96
2019-05-02T08:35:56.126Z,14.90
2019-05-02T08:38:24.746Z,15.54
2019-05-02T08:40:53.436Z,15.95
2019-05-02T08:43:22.162Z,15.77
2019-05-02T08:45:50.867Z,16.13
2019-05-02T08:48:22.487Z,15.76
2019-05-02T08:50:50.010Z,15.53
2019-05-02T08:53:19.684Z,16.08
2019-05-02T08:55:48.881Z,16.53
2019-05-02T08:58:17.533Z,16.81
2019-05-02T09:00:47.405Z,16.54
2019-05-02T09:03:16.312Z,16.84
2019-05-02T09:05:46.072Z,16.52
2019-05-02T09:08:16.672Z,16.11
2019-05-02T09:10:45.955Z,16.41
2019-05-02T09:13:18.017Z,16.68
2019-05-02T09:15:49.956Z,17.15
2019-05-02T09:18:15.432Z,16.84
2019-05-02T09:20:47.056Z,16.43
2019-05-02T09:23:14.526Z,15.99
2019-05-02T09:25:43.179Z,16.33
2019-05-02T09:28:12.495Z,16.53
2019-05-02T09:30:41.928Z,16.60
2019-05-02T09:33:11.723Z,15.68
2019-05-02T09:35:42.198Z,15.55
2019-05-02T09:38:12.953Z,16.06
2019-05-02T09:40:42.648Z,16.81
2019-05-02T09:43:12.182Z,16.78
2019-05-02T09:45:43.654Z,16.58
2019-05-02T09:48:12.531Z,16.60
2019-05-02T09:50:42.184Z,17.02
2019-05-02T09:53:13.052Z,16.77
2019-05-02T09:55:49.509Z,16.37
2019-05-02T09:58:18.962Z,17.44
2019-05-02T10:01:03.074Z,17.36
2019-05-02T10:03:32.124Z,18.13
2019-05-02T10:06:02.902Z,17.28
2019-05-02T10:08:32.139Z,17.27
2019-05-02T10:11:02.863Z,17.02
2019-05-02T10:13:32.876Z,17.55
2019-05-02T10:16:02.130Z,17.38
2019-05-02T10:18:32.923Z,17.31
2019-05-02T10:21:02.997Z,17.30
2019-05-02T10:23:32.183Z,17.31
2019-05-02T10:26:02.838Z,17.63
2019-05-02T10:28:31.781Z,17.25
2019-05-02T10:31:02.271Z,16.92
2019-05-02T10:33:33.681Z,17.14
2019-05-02T10:36:02.665Z,17.23
2019-05-02T10:38:32.596Z,17.10
2019-05-02T10:41:02.686Z,17.19
2019-05-02T10:43:32.916Z,17.55
2019-05-02T10:46:06.030Z,17.49
2019-05-02T10:48:36.294Z,17.49
2019-05-02T10:51:25.930Z,17.79
2019-05-02T10:53:56.435Z,17.93
2019-05-02T10:56:23.684Z,17.75
2019-05-02T10:58:52.430Z,17.32
2019-05-02T11:01:21.995Z,17.35
2019-05-02T11:03:52.236Z,17.81
2019-05-02T11:06:22.236Z,17.65
2019-05-02T11:08:52.381Z,17.63
2019-05-02T11:11:21.967Z,18.35
2019-05-02T11:13:55.433Z,17.97
2019-05-02T11:16:33.136Z,18.93
2019-05-02T11:19:06.547Z,18.71
2019-05-02T11:21:35.169Z,18.35
2019-05-02T11:24:03.860Z,18.88
2019-05-02T11:26:32.634Z,18.99
2019-05-02T11:29:03.038Z,18.33
2019-05-02T11:31:32.487Z,18.45
2019-05-02T11:34:01.865Z,18.95
2019-05-02T11:36:32.807Z,18.73
2019-05-02T11:39:10.503Z,19.41
2019-05-02T11:41:31.908Z,19.21
2019-05-02T11:44:02.810Z,19.23
2019-05-02T11:46:32.866Z,18.99
2019-05-02T11:49:02.372Z,18.90
2019-05-02T11:51:32.743Z,18.96
2019-05-02T11:54:05.115Z,18.82
2019-05-02T11:56:32.942Z,19.12
2019-05-02T11:59:02.799Z,19.12
2019-05-02T12:01:37.370Z,18.26
2019-05-02T12:04:02.988Z,17.95
2019-05-02T12:06:33.136Z,18.28
2019-05-02T12:09:02.239Z,18.23
2019-05-02T12:11:32.373Z,18.11
2019-05-02T12:14:01.752Z,18.01
2019-05-02T12:16:32.329Z,18.18
2019-05-02T12:19:11.159Z,18.47
2019-05-02T12:21:32.514Z,18.48
2019-05-02T12:24:02.243Z,18.59
2019-05-02T12:26:32.387Z,18.25
2019-05-02T12:29:02.661Z,17.61
2019-05-02T12:31:32.653Z,17.97
2019-05-02T12:34:03.297Z,18.26
2019-05-02T12:36:33.357Z,17.66
2019-05-02T12:39:02.545Z,17.93
2019-05-02T12:41:33.122Z,17.87
2019-05-02T12:44:02.359Z,18.14
2019-05-02T12:46:31.743Z,17.87
2019-05-02T12:49:02.620Z,17.49
2019-05-02T12:51:32.009Z,17.68
2019-05-02T12:54:02.319Z,17.19
2019-05-02T12:56:32.374Z,17.47
2019-05-02T12:59:02.885Z,17.97
2019-05-02T13:01:32.921Z,18.08
2019-05-02T13:04:03.459Z,17.60
2019-05-02T13:06:32.893Z,17.46
2019-05-02T13:09:03.111Z,18.28
2019-05-02T13:11:36.911Z,18.66
2019-05-02T13:14:18.383Z,18.72
2019-05-02T13:16:38.402Z,18.36
2019-05-02T13:19:07.440Z,18.39
2019-05-02T13:21:50.265Z,18.42
2019-05-02T13:24:29.507Z,18.25
2019-05-02T13:26:59.579Z,18.35
2019-05-02T13:29:28.328Z,18.46
2019-05-02T13:32:01.696Z,18.12
2019-05-02T13:34:32.087Z,17.82
2019-05-02T13:37:02.835Z,18.04
2019-05-02T13:39:38.993Z,17.93
2019-05-02T13:42:08.491Z,17.80
2019-05-02T13:44:54.803Z,18.13
2019-05-02T13:47:25.390Z,18.51
2019-05-02T13:49:58.009Z,18.60
2019-05-02T13:52:24.537Z,18.17
2019-05-02T13:54:53.645Z,18.37
2019-05-02T13:57:22.332Z,17.88
2019-05-02T13:59:52.508Z,17.81
2019-05-02T14:02:36.370Z,18.71
2019-05-02T14:05:12.777Z,18.60
2019-05-02T14:07:43.056Z,18.27
2019-05-02T14:10:22.831Z,18.99
2019-05-02T14:12:53.130Z,19.39
2019-05-02T14:15:23.531Z,18.43
2019-05-02T14:17:52.598Z,18.51
2019-05-02T14:20:22.541Z,18.76
2019-05-02T14:22:52.749Z,19.45
2019-05-02T14:25:22.355Z,19.42
2019-05-02T14:27:55.339Z,19.79
2019-05-02T14:30:36.069Z,19.19
2019-05-02T14:32:53.951Z,19.62
2019-05-02T14:35:36.089Z,19.07
2019-05-02T14:38:16.121Z,18.31
2019-05-02T14:40:48.373Z,18.08
2019-05-02T14:43:38.132Z,17.82
2019-05-02T14:46:05.305Z,17.73
2019-05-02T14:48:43.624Z,17.79
2019-05-02T14:51:07.347Z,18.18
2019-05-02T14:53:35.959Z,17.92
2019-05-02T14:56:22.904Z,18.36
2019-05-02T14:58:52.853Z,18.17
2019-05-02T15:01:25.834Z,18.01
2019-05-02T15:03:52.982Z,17.98
2019-05-02T15:06:23.642Z,17.62
2019-05-02T15:08:52.568Z,17.44
2019-05-02T15:11:30.349Z,17.38
2019-05-02T15:13:52.488Z,17.92
2019-05-02T15:16:26.178Z,17.73
2019-05-02T15:18:53.275Z,18.01
2019-05-02T15:21:22.789Z,17.56
2019-05-02T15:23:54.324Z,17.39
2019-05-02T15:26:26.210Z,17.66
2019-05-02T15:28:52.501Z,17.75
2019-05-02T15:31:34.325Z,18.19
2019-05-02T15:34:05.153Z,17.86
2019-05-02T15:36:37.140Z,17.79
2019-05-02T15:41:39.809Z,17.88
2019-05-02T15:44:08.651Z,18.22
2019-05-02T15:46:40.103Z,17.55
2019-05-02T15:49:07.803Z,17.63
2019-05-02T15:51:38.105Z,17.51
2019-05-02T15:54:08.895Z,17.35
2019-05-02T15:57:00.410Z,17.73
2019-05-02T15:59:37.562Z,17.83
2019-05-02T16:02:09.887Z,18.49
2019-05-02T16:04:41.784Z,18.23
2019-05-02T16:07:12.197Z,19.13
2019-05-02T16:09:41.641Z,18.61
2019-05-02T16:12:12.205Z,18.72
2019-05-02T16:14:42.450Z,18.82
2019-05-02T16:17:12.466Z,18.49
2019-05-02T16:19:42.969Z,18.70
2019-05-02T16:22:13.234Z,18.65
2019-05-02T16:24:43.951Z,18.87
2019-05-02T16:27:16.591Z,18.58
2019-05-02T16:29:43.734Z,18.72
2019-05-02T16:32:17.127Z,18.10
2019-05-02T16:34:56.119Z,18.11
2019-05-02T16:37:25.144Z,17.98
2019-05-02T16:39:53.824Z,18.22
2019-05-02T16:42:22.860Z,17.92
2019-05-02T16:44:54.435Z,17.22
2019-05-02T16:47:22.220Z,17.09
2019-05-02T16:49:53.424Z,16.93
2019-05-02T16:52:22.140Z,16.95
2019-05-02T16:54:52.714Z,17.57
2019-05-02T16:57:22.288Z,17.23
2019-05-02T16:59:53.990Z,17.38
2019-05-02T17:02:21.906Z,17.42
2019-05-02T17:04:52.062Z,17.47
2019-05-02T17:07:22.792Z,17.37
2019-05-02T17:10:14.770Z,17.36
2019-05-02T17:12:39.951Z,17.72
2019-05-02T17:15:31.110Z,17.68
2019-05-02T17:17:59.093Z,17.22
2019-05-02T17:20:27.789Z,17.25
2019-05-02T17:23:01.942Z,17.19
2019-05-02T17:25:26.925Z,16.91
2019-05-02T17:28:03.927Z,17.30
2019-05-02T17:30:33.638Z,16.54
2019-05-02T17:32:58.222Z,16.60
2019-05-02T17:35:27.054Z,17.30
2019-05-02T17:37:55.825Z,16.79
2019-05-02T17:40:26.127Z,16.97
2019-05-02T17:42:57.134Z,17.30
2019-05-02T17:45:25.520Z,18.08
2019-05-02T17:47:54.330Z,17.09
2019-05-02T17:50:42.223Z,17.23
2019-05-02T17:53:11.670Z,17.89
2019-05-02T17:55:42.675Z,17.88
2019-05-02T17:58:12.943Z,18.02
2019-05-02T18:00:47.460Z,17.83
2019-05-02T18:03:16.116Z,17.99
2019-05-02T18:05:44.837Z,18.07
2019-05-02T18:08:14.866Z,18.20
2019-05-02T18:10:43.762Z,17.83
2019-05-02T18:13:12.443Z,17.00
2019-05-02T18:15:41.690Z,17.23
2019-05-02T18:18:11.076Z,17.47
2019-05-02T18:20:42.671Z,17.33
2019-05-02T18:23:12.090Z,17.47
2019-05-02T18:25:40.556Z,17.67
2019-05-02T18:28:14.044Z,17.79
2019-05-02T18:30:41.606Z,18.11
2019-05-02T18:33:12.025Z,17.83
2019-05-02T18:35:45.225Z,18.03
2019-05-02T18:38:10.943Z,18.06
2019-05-02T18:40:39.672Z,17.36
2019-05-02T18:43:08.365Z,16.84
2019-05-02T18:45:37.064Z,17.08
2019-05-02T18:48:06.928Z,17.55
2019-05-02T18:50:44.286Z,17.10
2019-05-02T18:53:10.348Z,17.26
2019-05-02T18:55:42.026Z,17.17
2019-05-02T18:58:12.585Z,17.05
2019-05-02T19:00:43.152Z,17.24
2019-05-02T19:03:15.729Z,16.84
2019-05-02T19:05:42.463Z,17.05
2019-05-02T19:08:12.033Z,17.06
2019-05-02T19:10:44.699Z,16.51
2019-05-02T19:13:12.719Z,16.88
2019-05-02T19:15:45.287Z,16.39
2019-05-02T19:18:18.093Z,16.88
2019-05-02T19:20:57.586Z,16.59
2019-05-02T19:23:24.905Z,16.96
2019-05-02T19:25:53.587Z,17.22
2019-05-02T19:28:24.096Z,17.27
2019-05-02T19:30:52.776Z,16.82
2019-05-02T19:33:23.415Z,16.60
2019-05-02T19:35:52.573Z,16.58
2019-05-02T19:38:24.795Z,16.02
2019-05-02T19:40:52.087Z,16.74
2019-05-02T19:43:22.888Z,16.58
2019-05-02T19:45:54.016Z,16.63
2019-05-02T19:48:22.677Z,16.69
2019-05-02T19:50:51.870Z,15.71
2019-05-02T19:53:22.673Z,16.51
2019-05-02T19:55:51.989Z,16.30
2019-05-02T19:58:20.839Z,16.14
2019-05-02T20:00:49.621Z,15.52
2019-05-02T20:03:21.698Z,15.32
2019-05-02T20:05:49.047Z,16.03
2019-05-02T20:08:22.831Z,16.34
2019-05-02T20:10:49.270Z,15.89
2019-05-02T20:13:20.381Z,16.01
2019-05-02T20:15:52.266Z,16.33
2019-05-02T20:18:20.993Z,15.97
2019-05-02T20:20:58.500Z,16.37
2019-05-02T20:23:33.229Z,15.75
2019-05-02T20:25:59.075Z,15.64
2019-05-02T20:28:27.807Z,16.23
2019-05-02T20:30:56.489Z,16.17
2019-05-02T20:33:25.198Z,16.19
2019-05-02T20:35:53.845Z,15.83
2019-05-02T20:38:22.540Z,15.62
2019-05-02T20:40:52.261Z,15.62
2019-05-02T20:43:22.698Z,15.13
2019-05-02T20:45:52.787Z,14.87
2019-05-02T20:48:22.881Z,15.51
2019-05-02T20:50:52.042Z,15.11
2019-05-02T20:53:28.795Z,14.52
2019-05-02T20:55:52.368Z,14.51
2019-05-02T20:58:21.982Z,14.68
2019-05-02T21:01:05.060Z,14.90
2019-05-02T21:03:21.277Z,14.31
2019-05-02T21:05:54.268Z,14.23
2019-05-02T21:08:24.638Z,14.62
2019-05-02T21:10:54.912Z,14.82
2019-05-02T21:13:23.634Z,15.16
2019-05-02T21:15:52.518Z,14.71
2019-05-02T21:18:22.083Z,14.73
2019-05-02T21:20:52.541Z,15.09
2019-05-02T21:23:21.957Z,15.33
2019-05-02T21:25:52.498Z,15.55
2019-05-02T21:28:22.714Z,15.61
2019-05-02T21:30:52.421Z,15.35
2019-05-02T21:33:35.951Z,15.46
2019-05-02T21:36:04.971Z,15.73
2019-05-02T21:38:33.655Z,15.74
2019-05-02T21:41:02.491Z,15.50
2019-05-02T21:43:31.698Z,15.18
2019-05-02T21:46:02.369Z,14.88
2019-05-02T21:48:32.699Z,14.19
2019-05-02T21:51:05.896Z,14.64
2019-05-02T21:53:49.154Z,14.80
2019-05-02T21:56:14.042Z,15.31
2019-05-02T21:58:44.311Z,15.78
2019-05-02T22:01:14.454Z,14.57
2019-05-02T22:03:43.137Z,15.13
2019-05-02T22:06:12.319Z,15.32
2019-05-02T22:08:41.747Z,15.27
2019-05-02T22:11:12.229Z,15.65
2019-05-02T22:13:42.301Z,15.61
2019-05-02T22:16:12.996Z,15.15
2019-05-02T22:18:42.782Z,15.63
2019-05-02T22:21:12.312Z,15.00
2019-05-02T22:23:42.553Z,14.82
2019-05-02T22:26:12.719Z,14.28
2019-05-02T22:28:41.638Z,13.77
2019-05-02T22:31:12.263Z,14.99
2019-05-02T22:33:42.158Z,14.86
2019-05-02T22:36:12.395Z,14.91
2019-05-02T22:38:42.697Z,14.85
2019-05-02T22:41:12.534Z,15.19
2019-05-02T22:43:42.178Z,15.17
2019-05-02T22:46:14.079Z,14.99
2019-05-02T22:48:42.793Z,15.15
2019-05-02T22:51:12.054Z,15.35
2019-05-02T22:53:41.739Z,14.66
2019-05-02T22:56:11.751Z,15.40
2019-05-02T22:58:42.123Z,15.46
2019-05-02T23:01:10.849Z,14.10
2019-05-02T23:03:39.475Z,14.12
2019-05-02T23:06:08.179Z,14.58
2019-05-02T23:08:36.913Z,13.58
2019-05-02T23:11:05.615Z,14.34
2019-05-02T23:13:34.314Z,14.32
2019-05-02T23:16:03.039Z,14.49
2019-05-02T23:18:32.008Z,14.66
2019-05-02T23:21:02.173Z,14.96
2019-05-02T23:23:32.753Z,14.94
2019-05-02T23:26:12.860Z,14.39
2019-05-02T23:28:43.188Z,13.56
2019-05-02T23:31:14.071Z,13.26
2019-05-02T23:34:02.040Z,13.61
2019-05-02T23:36:32.453Z,14.02
2019-05-02T23:39:01.969Z,14.62
2019-05-02T23:41:32.724Z,14.85
2019-05-02T23:44:02.823Z,14.72
2019-05-02T23:46:31.547Z,14.81
2019-05-02T23:49:02.031Z,13.97
2019-05-02T23:51:32.141Z,14.05
2019-05-02T23:54:02.067Z,14.38
2019-05-02T23:56:32.551Z,14.41
2019-05-02T23:59:02.705Z,14.45
